Terminal Aerodrome Forecast
Issued by NWS Cleveland, OH

Home | Current Version | Previous Version | Text Only | Print | Product List | Glossary On
Versions: 1 2 3 4 5 6 7 8 9 10 11 12 13 14 15 16
000
FTUS41 KCLE 011727
TAFYNG
TAF
KYNG 011727Z 0118/0218 24007KT P6SM SCT050
     FM020200 VRB03KT P6SM SKC
     FM020900 VRB03KT 4SM BR SKC
     FM021400 27007KT P6SM SCT045=

USA.gov is the U.S. government's official web portal to all federal, state and local government web resources and services.